createdAt,value
2023-04-05T00:00:14.736Z,75.54
2023-04-05T00:01:14.664Z,75.92
2023-04-05T00:02:14.652Z,75.50
2023-04-05T00:03:14.871Z,75.92
2023-04-05T00:04:14.756Z,75.54
2023-04-05T00:05:14.684Z,75.01
2023-04-05T00:06:14.601Z,75.12
2023-04-05T00:07:14.608Z,75.32
2023-04-05T00:08:14.581Z,74.80
2023-04-05T00:09:14.599Z,75.54
2023-04-05T00:10:14.599Z,75.64
2023-04-05T00:11:14.600Z,75.85
2023-04-05T00:12:14.570Z,75.74
2023-04-05T00:13:14.568Z,75.64
2023-04-05T00:14:14.554Z,75.74
2023-04-05T00:15:14.523Z,75.01
2023-04-05T00:16:14.592Z,75.74
2023-04-05T00:17:14.521Z,74.91
2023-04-05T00:18:14.476Z,75.85
2023-04-05T00:19:14.505Z,75.85
2023-04-05T00:20:14.455Z,75.64
2023-04-05T00:21:14.483Z,75.71
2023-04-05T00:22:14.460Z,75.64
2023-04-05T00:23:14.437Z,75.60
2023-04-05T00:24:14.444Z,75.60
2023-04-05T00:25:14.403Z,75.50
2023-04-05T00:26:14.396Z,76.26
2023-04-05T00:27:14.384Z,76.26
2023-04-05T00:28:14.403Z,75.40
2023-04-05T00:29:14.395Z,75.64
2023-04-05T00:30:14.343Z,75.64
2023-04-05T00:31:14.364Z,75.95
2023-04-05T00:32:14.373Z,75.01
2023-04-05T00:33:14.324Z,74.67
2023-04-05T00:34:14.341Z,75.12
2023-04-05T00:35:14.317Z,74.88
2023-04-05T00:36:14.337Z,76.02
2023-04-05T00:37:14.296Z,75.71
2023-04-05T00:38:14.269Z,75.60
2023-04-05T00:39:14.261Z,75.64
2023-04-05T00:40:14.292Z,75.71
2023-04-05T00:41:14.250Z,75.85
2023-04-05T00:42:14.236Z,75.54
2023-04-05T00:43:14.211Z,75.92
2023-04-05T00:44:14.213Z,75.64
2023-04-05T00:45:14.213Z,75.54
2023-04-05T00:46:14.275Z,75.85
2023-04-05T00:47:14.220Z,75.54
2023-04-05T00:48:14.152Z,76.06
2023-04-05T00:49:14.149Z,76.06
2023-04-05T00:50:14.160Z,76.06
2023-04-05T00:51:14.131Z,76.26
2023-04-05T00:52:14.155Z,77.40
2023-04-05T00:53:14.160Z,76.99
2023-04-05T00:54:14.136Z,76.89
2023-04-05T00:55:14.091Z,76.89
2023-04-05T00:56:14.107Z,76.89
2023-04-05T00:57:14.078Z,77.82
2023-04-05T00:58:14.061Z,77.61
2023-04-05T00:59:14.181Z,77.09
2023-04-05T01:00:14.045Z,77.20
2023-04-05T01:01:14.147Z,77.06
2023-04-05T01:02:14.019Z,76.78
2023-04-05T01:03:14.003Z,77.40
2023-04-05T01:04:14.063Z,75.64
2023-04-05T01:05:14.022Z,74.70
2023-04-05T01:06:15.473Z,74.80
2023-04-05T01:07:13.953Z,74.91
2023-04-05T01:08:13.945Z,74.70
2023-04-05T01:09:13.946Z,74.60
2023-04-05T01:10:13.927Z,73.97
2023-04-05T01:11:13.932Z,73.87
2023-04-05T01:12:13.918Z,73.43
2023-04-05T01:13:13.896Z,73.00
2023-04-05T01:14:13.898Z,73.53
2023-04-05T01:15:13.888Z,73.74
2023-04-05T01:16:13.873Z,73.43
2023-04-05T01:17:13.893Z,73.00
2023-04-05T01:18:13.846Z,73.11
2023-04-05T01:19:13.832Z,72.97
2023-04-05T01:20:13.836Z,72.04
2023-04-05T01:21:13.809Z,72.45
2023-04-05T01:22:13.808Z,72.35
2023-04-05T01:23:13.846Z,72.04
2023-04-05T01:24:13.764Z,72.53
2023-04-05T01:25:13.807Z,72.97
2023-04-05T01:26:13.745Z,73.67
2023-04-05T01:27:13.740Z,73.57
2023-04-05T01:28:13.739Z,74.22
2023-04-05T01:29:13.745Z,74.74
2023-04-05T01:30:13.723Z,74.22
2023-04-05T01:31:13.714Z,74.01
2023-04-05T01:32:13.693Z,74.32
2023-04-05T01:33:13.677Z,74.53
2023-04-05T01:34:13.662Z,75.15
2023-04-05T01:35:13.698Z,75.71
2023-04-05T01:36:13.646Z,75.67
2023-04-05T01:37:13.634Z,75.78
2023-04-05T01:38:13.628Z,76.19
2023-04-05T01:39:13.631Z,77.23
2023-04-05T01:40:13.600Z,75.98
2023-04-05T01:41:13.610Z,75.60
2023-04-05T01:42:13.595Z,75.29
2023-04-05T01:43:13.566Z,75.92
2023-04-05T01:44:13.557Z,75.67
2023-04-05T01:45:13.542Z,74.84
2023-04-05T01:46:13.603Z,73.91
2023-04-05T01:47:13.548Z,73.60
2023-04-05T01:48:13.503Z,73.74
2023-04-05T01:49:13.500Z,74.05
2023-04-05T01:50:13.519Z,74.26
2023-04-05T01:51:13.479Z,74.67
2023-04-05T01:52:13.466Z,75.19
2023-04-05T01:53:13.476Z,75.19
2023-04-05T01:54:13.460Z,75.40
2023-04-05T01:55:13.433Z,74.77
2023-04-05T01:56:13.419Z,75.29
2023-04-05T01:57:13.470Z,74.77
2023-04-05T01:58:13.440Z,75.71
2023-04-05T01:59:13.484Z,74.91
2023-04-05T02:00:13.392Z,74.88
2023-04-05T02:01:13.435Z,75.01
2023-04-05T02:02:13.379Z,74.57
2023-04-05T02:03:13.538Z,74.67
2023-04-05T02:04:13.353Z,74.98
2023-04-05T02:05:13.327Z,75.29
2023-04-05T02:06:13.316Z,75.12
2023-04-05T02:07:13.314Z,75.22
2023-04-05T02:08:13.300Z,74.98
2023-04-05T02:09:13.330Z,75.92
2023-04-05T02:10:13.276Z,75.43
2023-04-05T02:11:13.262Z,75.60
2023-04-05T02:12:13.251Z,75.60
2023-04-05T02:13:13.296Z,75.81
2023-04-05T02:14:13.245Z,76.23
2023-04-05T02:15:13.294Z,76.12
2023-04-05T02:16:13.265Z,76.33
2023-04-05T02:17:13.201Z,76.95
2023-04-05T02:18:13.196Z,76.43
2023-04-05T02:19:13.201Z,76.23
2023-04-05T02:20:13.170Z,76.85
2023-04-05T02:21:13.197Z,77.16
2023-04-05T02:22:13.149Z,76.89
2023-04-05T02:23:13.160Z,75.95
2023-04-05T02:24:13.267Z,76.33
2023-04-05T02:25:13.115Z,76.26
2023-04-05T02:26:13.098Z,75.71
2023-04-05T02:27:13.177Z,76.06
2023-04-05T02:28:13.089Z,75.74
2023-04-05T02:29:13.091Z,75.43
2023-04-05T02:30:13.060Z,76.78
2023-04-05T02:31:13.068Z,76.99
2023-04-05T02:32:13.056Z,77.30
2023-04-05T02:33:13.081Z,76.99
2023-04-05T02:34:13.031Z,77.09
2023-04-05T02:35:13.010Z,77.34
2023-04-05T02:36:13.018Z,76.92
2023-04-05T02:37:12.983Z,77.51
2023-04-05T02:38:12.989Z,77.75
2023-04-05T02:39:13.006Z,77.86
2023-04-05T02:40:12.946Z,77.34
2023-04-05T02:41:12.943Z,77.86
2023-04-05T02:42:12.952Z,78.48
2023-04-05T02:43:12.937Z,78.38
2023-04-05T02:44:12.914Z,78.00
2023-04-05T02:45:12.946Z,77.44
2023-04-05T02:46:12.905Z,77.34
2023-04-05T02:47:12.874Z,76.72
2023-04-05T02:48:12.879Z,76.92
2023-04-05T02:49:12.875Z,77.34
2023-04-05T02:50:12.862Z,77.44
2023-04-05T02:51:12.884Z,77.75
2023-04-05T02:52:12.819Z,77.96
2023-04-05T02:53:12.812Z,77.58
2023-04-05T02:54:12.828Z,77.55
2023-04-05T02:55:12.861Z,77.48
2023-04-05T02:56:12.792Z,78.20
2023-04-05T02:57:12.790Z,78.58
2023-04-05T02:58:12.768Z,78.62
2023-04-05T02:59:12.819Z,79.03
2023-04-05T03:00:12.751Z,79.03
2023-04-05T03:01:12.839Z,79.24
2023-04-05T03:02:12.706Z,79.14
2023-04-05T03:03:12.832Z,78.93
2023-04-05T03:04:12.689Z,79.03
2023-04-05T03:05:12.686Z,78.86
2023-04-05T03:06:12.682Z,78.83
2023-04-05T03:07:12.681Z,78.93
2023-04-05T03:08:12.715Z,79.03
2023-04-05T03:09:12.641Z,79.35
2023-04-05T03:10:12.660Z,79.80
2023-04-05T03:11:12.630Z,79.59
2023-04-05T03:12:12.610Z,79.80
2023-04-05T03:13:12.608Z,79.80
2023-04-05T03:14:12.660Z,79.69
2023-04-05T03:15:12.567Z,79.80
2023-04-05T03:16:12.634Z,79.59
2023-04-05T03:17:12.599Z,79.28
2023-04-05T03:18:12.572Z,79.91
2023-04-05T03:19:12.541Z,79.91
2023-04-05T03:20:12.523Z,79.94
2023-04-05T03:21:12.554Z,79.73
2023-04-05T03:22:12.524Z,80.01
2023-04-05T03:23:12.503Z,80.15
2023-04-05T03:24:12.470Z,80.57
2023-04-05T03:25:12.478Z,80.36
2023-04-05T03:26:12.451Z,79.83
2023-04-05T03:27:12.464Z,80.46
2023-04-05T03:28:12.517Z,79.83
2023-04-05T03:29:12.418Z,79.63
2023-04-05T03:30:12.408Z,80.29
2023-04-05T03:31:12.437Z,80.15
2023-04-05T03:32:12.421Z,80.81
2023-04-05T03:33:12.411Z,80.81
2023-04-05T03:34:12.370Z,80.81
2023-04-05T03:35:12.354Z,80.29
2023-04-05T03:36:12.367Z,80.29
2023-04-05T03:37:12.324Z,80.91
2023-04-05T03:38:12.462Z,80.71
2023-04-05T03:39:12.303Z,80.29
2023-04-05T03:40:12.299Z,80.40
2023-04-05T03:41:12.284Z,80.60
2023-04-05T03:42:12.286Z,80.19
2023-04-05T03:43:12.284Z,80.40
2023-04-05T03:44:12.299Z,80.60
2023-04-05T03:45:12.256Z,80.40
2023-04-05T03:46:12.332Z,80.71
2023-04-05T03:47:12.226Z,81.12
2023-04-05T03:48:12.222Z,81.23
2023-04-05T03:49:12.234Z,81.33
2023-04-05T03:50:12.263Z,81.47
2023-04-05T03:51:12.202Z,81.68
2023-04-05T03:52:12.210Z,81.12
2023-04-05T03:53:12.188Z,81.16
2023-04-05T03:54:12.187Z,81.05
2023-04-05T03:55:12.178Z,81.05
2023-04-05T03:56:12.180Z,80.95
2023-04-05T03:57:12.121Z,80.85
2023-04-05T03:58:12.113Z,80.95
2023-04-05T03:59:12.113Z,81.68
2023-04-05T04:00:12.096Z,81.37
2023-04-05T04:01:12.066Z,81.26
2023-04-05T04:02:12.127Z,81.16
2023-04-05T04:03:12.095Z,81.68
2023-04-05T04:04:12.041Z,81.68
2023-04-05T04:05:12.061Z,81.37
2023-04-05T04:06:12.112Z,81.26
2023-04-05T04:07:12.023Z,81.37
2023-04-05T04:08:12.065Z,81.26
2023-04-05T04:09:11.987Z,81.30
2023-04-05T04:10:12.106Z,81.58
2023-04-05T04:11:11.969Z,81.20
2023-04-05T04:12:11.952Z,81.79
2023-04-05T04:13:11.942Z,82.34
2023-04-05T04:14:11.996Z,81.93
2023-04-05T04:15:11.937Z,81.68
2023-04-05T04:16:11.948Z,81.93
2023-04-05T04:17:11.907Z,82.20
2023-04-05T04:18:11.892Z,82.14
2023-04-05T04:19:11.900Z,81.68
2023-04-05T04:20:11.895Z,82.10
2023-04-05T04:21:11.873Z,82.10
2023-04-05T04:22:11.866Z,81.93
2023-04-05T04:23:11.848Z,81.93
2023-04-05T04:24:11.836Z,81.72
2023-04-05T04:25:11.834Z,81.82
2023-04-05T04:26:11.825Z,81.89
2023-04-05T04:27:11.805Z,81.89
2023-04-05T04:28:11.780Z,81.82
2023-04-05T04:29:11.792Z,82.14
2023-04-05T04:30:11.774Z,82.24
2023-04-05T04:31:11.747Z,81.47
2023-04-05T04:32:11.780Z,82.14
2023-04-05T04:33:11.755Z,81.93
2023-04-05T04:34:11.724Z,81.93
2023-04-05T04:35:11.788Z,82.14
2023-04-05T04:36:11.766Z,82.14
2023-04-05T04:37:11.698Z,82.24
2023-04-05T04:38:11.742Z,81.72
2023-04-05T04:39:11.686Z,81.68
2023-04-05T04:40:11.657Z,81.05
2023-04-05T04:41:11.659Z,81.72
2023-04-05T04:42:11.636Z,81.09
2023-04-05T04:43:11.636Z,81.16
2023-04-05T04:44:11.681Z,81.20
2023-04-05T04:45:11.605Z,81.30
2023-04-05T04:46:11.654Z,80.99
2023-04-05T04:47:13.082Z,82.03
2023-04-05T04:48:11.590Z,81.62
2023-04-05T04:49:11.569Z,82.03
2023-04-05T04:50:11.608Z,81.72
2023-04-05T04:51:11.532Z,81.51
2023-04-05T04:52:11.543Z,81.82
2023-04-05T04:53:11.547Z,81.51
2023-04-05T04:54:11.516Z,81.62
2023-04-05T04:55:11.499Z,81.93
2023-04-05T04:56:11.521Z,81.93
2023-04-05T04:57:11.488Z,81.51
2023-04-05T04:58:11.473Z,82.07
2023-04-05T04:59:11.474Z,81.65
2023-04-05T05:00:11.449Z,82.07
2023-04-05T05:01:11.448Z,81.72
2023-04-05T05:02:11.489Z,81.82
2023-04-05T05:03:11.557Z,82.14
2023-04-05T05:04:11.435Z,82.03
2023-04-05T05:05:11.455Z,82.17
2023-04-05T05:06:11.410Z,82.07
2023-04-05T05:07:11.369Z,81.65
2023-04-05T05:08:11.450Z,81.55
2023-04-05T05:09:11.411Z,81.45
2023-04-05T05:10:11.349Z,81.34
2023-04-05T05:11:11.331Z,81.76
2023-04-05T05:12:11.323Z,82.07
2023-04-05T05:13:11.324Z,81.76
2023-04-05T05:14:11.317Z,81.45
2023-04-05T05:15:11.327Z,82.38
2023-04-05T05:16:11.317Z,82.48
2023-04-05T05:17:11.273Z,82.28
2023-04-05T05:18:11.320Z,82.28
2023-04-05T05:19:11.239Z,82.38
2023-04-05T05:20:11.538Z,81.76
2023-04-05T05:21:11.249Z,81.76
2023-04-05T05:22:11.245Z,81.96
2023-04-05T05:23:11.207Z,81.86
2023-04-05T05:24:11.206Z,82.03
2023-04-05T05:25:11.192Z,81.62
2023-04-05T05:26:11.206Z,81.30
2023-04-05T05:27:11.217Z,81.62
2023-04-05T05:28:11.154Z,81.41
2023-04-05T05:29:11.144Z,81.41
2023-04-05T05:30:11.139Z,81.62
2023-04-05T05:31:11.242Z,81.41
2023-04-05T05:32:11.104Z,81.72
2023-04-05T05:33:11.189Z,81.47
2023-04-05T05:34:11.098Z,81.20
2023-04-05T05:35:11.084Z,81.37
2023-04-05T05:36:11.066Z,80.22
2023-04-05T05:37:11.124Z,80.43
2023-04-05T05:38:13.392Z,80.54
2023-04-05T05:39:11.171Z,80.22
2023-04-05T05:40:11.028Z,80.85
2023-04-05T05:41:11.035Z,80.12
2023-04-05T05:42:11.007Z,80.22
2023-04-05T05:43:10.999Z,80.43
2023-04-05T05:44:10.983Z,80.60
2023-04-05T05:45:11.030Z,80.64
2023-04-05T05:46:11.028Z,80.02
2023-04-05T05:47:10.980Z,80.71
2023-04-05T05:48:11.012Z,80.29
2023-04-05T05:49:10.918Z,80.40
2023-04-05T05:50:10.921Z,80.50
2023-04-05T05:51:10.952Z,80.29
2023-04-05T05:52:10.900Z,80.40
2023-04-05T05:53:10.891Z,80.08
2023-04-05T05:54:10.881Z,79.63
2023-04-05T05:55:10.872Z,80.19
2023-04-05T05:56:10.951Z,79.98
2023-04-05T05:57:10.904Z,79.63
2023-04-05T05:58:10.843Z,79.11
2023-04-05T05:59:10.926Z,79.00
2023-04-05T06:00:10.896Z,79.42
2023-04-05T06:01:10.805Z,79.73
2023-04-05T06:02:10.778Z,80.05
2023-04-05T06:03:10.919Z,80.26
2023-04-05T06:04:10.821Z,80.36
2023-04-05T06:05:10.748Z,80.15
2023-04-05T06:06:10.761Z,81.19
2023-04-05T06:07:10.734Z,81.40
2023-04-05T06:08:10.720Z,81.50
2023-04-05T06:09:10.734Z,81.98
2023-04-05T06:10:10.704Z,81.36
2023-04-05T06:11:10.692Z,80.84
2023-04-05T06:12:10.695Z,80.74
2023-04-05T06:13:10.731Z,79.80
2023-04-05T06:14:10.657Z,79.69
2023-04-05T06:15:10.695Z,79.38
2023-04-05T06:16:10.697Z,79.49
2023-04-05T06:17:10.658Z,79.66
2023-04-05T06:18:10.689Z,79.59
2023-04-05T06:19:10.607Z,79.66
2023-04-05T06:20:10.598Z,79.45
2023-04-05T06:21:10.957Z,79.66
2023-04-05T06:22:10.583Z,79.35
2023-04-05T06:23:10.559Z,78.72
2023-04-05T06:24:10.546Z,78.31
2023-04-05T06:25:10.549Z,77.75
2023-04-05T06:26:10.528Z,77.27
2023-04-05T06:27:10.543Z,77.23
2023-04-05T06:28:10.527Z,77.13
2023-04-05T06:29:10.528Z,76.92
2023-04-05T06:30:10.512Z,77.92
2023-04-05T06:31:11.624Z,77.30
2023-04-05T06:32:10.553Z,76.95
2023-04-05T06:33:10.493Z,76.43
2023-04-05T06:34:10.467Z,76.50
2023-04-05T06:35:10.444Z,77.23
2023-04-05T06:36:10.489Z,76.06
2023-04-05T06:37:10.399Z,75.46
2023-04-05T06:38:10.390Z,75.12
2023-04-05T06:39:10.402Z,75.33
2023-04-05T06:40:10.415Z,75.40
2023-04-05T06:41:10.372Z,74.88
2023-04-05T06:42:10.389Z,74.46
2023-04-05T06:43:10.364Z,74.11
2023-04-05T06:44:10.361Z,74.01
2023-04-05T06:45:10.344Z,74.53
2023-04-05T06:46:10.474Z,73.36
2023-04-05T06:47:10.311Z,73.36
2023-04-05T06:48:10.371Z,72.81
2023-04-05T06:49:10.269Z,72.91
2023-04-05T06:50:10.275Z,72.15
2023-04-05T06:51:10.286Z,71.01
2023-04-05T06:52:10.271Z,71.63
2023-04-05T06:53:10.229Z,70.18
2023-04-05T06:54:10.239Z,70.81
2023-04-05T06:55:10.220Z,70.98
2023-04-05T06:56:10.201Z,71.39
2023-04-05T06:57:10.220Z,68.98
2023-04-05T06:58:10.180Z,68.60
2023-04-05T06:59:10.242Z,69.01
2023-04-05T07:00:10.161Z,69.09
2023-04-05T07:01:10.235Z,67.40
2023-04-05T07:02:10.155Z,67.40
2023-04-05T07:03:10.228Z,66.96
2023-04-05T07:04:10.141Z,66.85
2023-04-05T07:05:10.102Z,65.92
2023-04-05T07:06:10.090Z,66.33
2023-04-05T07:07:10.096Z,66.44
2023-04-05T07:08:10.094Z,66.41
2023-04-05T07:09:10.125Z,66.30
2023-04-05T07:10:10.051Z,64.49
2023-04-05T07:11:10.153Z,64.90
2023-04-05T07:12:10.301Z,63.35
2023-04-05T07:13:10.024Z,62.94
2023-04-05T07:14:10.030Z,63.69
2023-04-05T07:15:10.026Z,63.69
2023-04-05T07:16:10.057Z,63.59
2023-04-05T07:17:10.024Z,63.90
2023-04-05T07:18:09.962Z,63.69
2023-04-05T07:19:09.976Z,62.84
2023-04-05T07:20:09.950Z,62.66
2023-04-05T07:21:09.978Z,63.25
2023-04-05T07:22:09.922Z,63.84
2023-04-05T07:23:09.903Z,62.71
2023-04-05T07:24:09.896Z,61.78
2023-04-05T07:25:09.884Z,61.98
2023-04-05T07:26:09.881Z,61.05
2023-04-05T07:27:09.933Z,61.47
2023-04-05T07:28:09.853Z,61.96
2023-04-05T07:29:09.837Z,60.75
2023-04-05T07:30:09.828Z,61.68
2023-04-05T07:31:09.830Z,61.57
2023-04-05T07:32:09.823Z,61.85
2023-04-05T07:33:09.881Z,62.78
2023-04-05T07:34:09.788Z,62.54
2023-04-05T07:35:09.785Z,62.79
2023-04-05T07:36:09.789Z,61.25
2023-04-05T07:37:09.764Z,60.19
2023-04-05T07:38:09.741Z,59.61
2023-04-05T07:39:09.754Z,59.47
2023-04-05T07:40:09.748Z,60.22
2023-04-05T07:41:09.711Z,60.81
2023-04-05T07:42:09.742Z,60.89
2023-04-05T07:43:09.684Z,59.75
2023-04-05T07:44:09.713Z,60.27
2023-04-05T07:45:09.699Z,60.14
2023-04-05T07:46:09.706Z,60.14
2023-04-05T07:47:09.639Z,58.80
2023-04-05T07:48:09.738Z,59.01
2023-04-05T07:49:09.668Z,59.91
2023-04-05T07:50:09.634Z,59.08
2023-04-05T07:51:09.683Z,58.44
2023-04-05T07:52:09.598Z,58.64
2023-04-05T07:53:09.584Z,57.49
2023-04-05T07:54:09.566Z,57.18
2023-04-05T07:55:09.589Z,57.18
2023-04-05T07:56:09.544Z,57.67
2023-04-05T07:57:09.600Z,57.28
2023-04-05T07:58:09.543Z,57.10
2023-04-05T07:59:09.568Z,56.70
2023-04-05T08:00:09.507Z,57.93
2023-04-05T08:01:09.520Z,58.62
2023-04-05T08:02:14.461Z,57.05
2023-04-05T08:03:10.600Z,57.43
2023-04-05T08:04:09.534Z,56.10
2023-04-05T08:05:09.567Z,56.13
2023-04-05T08:06:09.449Z,56.02
2023-04-05T08:07:09.451Z,55.00
2023-04-05T08:08:09.412Z,56.00
2023-04-05T08:09:09.420Z,55.18
2023-04-05T08:10:09.391Z,55.28
2023-04-05T08:11:09.389Z,55.66
2023-04-05T08:12:09.391Z,54.53
2023-04-05T08:13:09.381Z,54.85
2023-04-05T08:14:09.368Z,54.21
2023-04-05T08:15:09.351Z,55.26
2023-04-05T08:16:09.348Z,54.85
2023-04-05T08:17:09.330Z,53.80
2023-04-05T08:18:09.355Z,54.10
2023-04-05T08:19:09.368Z,53.54
2023-04-05T08:20:09.354Z,54.15
2023-04-05T08:21:09.313Z,54.15
2023-04-05T08:22:09.301Z,54.53
2023-04-05T08:23:09.278Z,53.85
2023-04-05T08:24:09.246Z,54.18
2023-04-05T08:25:09.224Z,56.00
2023-04-05T08:26:09.265Z,54.74
2023-04-05T08:27:09.208Z,54.13
2023-04-05T08:28:09.207Z,56.05
2023-04-05T08:29:09.207Z,53.87
2023-04-05T08:30:09.195Z,52.85
2023-04-05T08:31:09.711Z,52.54
2023-04-05T08:32:09.279Z,53.08
2023-04-05T08:33:09.180Z,52.15
2023-04-05T08:34:09.125Z,52.80
2023-04-05T08:35:09.135Z,54.53
2023-04-05T08:36:09.122Z,54.51
2023-04-05T08:37:09.112Z,53.59
2023-04-05T08:38:09.109Z,53.90
2023-04-05T08:39:09.071Z,54.69
2023-04-05T08:40:09.077Z,54.05
2023-04-05T08:41:09.063Z,53.95
2023-04-05T08:42:09.037Z,53.72
2023-04-05T08:43:09.032Z,52.26
2023-04-05T08:44:09.050Z,53.08
2023-04-05T08:45:09.045Z,53.98
2023-04-05T08:46:09.023Z,52.52
2023-04-05T08:47:08.987Z,53.62
2023-04-05T08:48:08.985Z,51.81
2023-04-05T08:49:09.028Z,51.07
2023-04-05T08:50:09.101Z,51.65
2023-04-05T08:51:08.945Z,52.06
2023-04-05T08:52:08.936Z,51.25
2023-04-05T08:53:08.942Z,49.41
2023-04-05T08:54:08.916Z,50.48
2023-04-05T08:55:08.942Z,52.44
2023-04-05T08:56:09.008Z,52.22
2023-04-05T08:57:08.882Z,52.80
2023-04-05T08:58:08.868Z,52.29
2023-04-05T08:59:08.892Z,51.76
2023-04-05T09:00:08.869Z,51.12
2023-04-05T09:01:08.855Z,49.18
2023-04-05T09:02:08.927Z,49.29
2023-04-05T09:03:08.934Z,51.12
2023-04-05T09:04:08.811Z,51.10
2023-04-05T09:05:08.800Z,49.57
2023-04-05T09:06:08.787Z,49.38
2023-04-05T09:07:08.790Z,49.69
2023-04-05T09:08:08.796Z,49.29
2023-04-05T09:09:08.786Z,48.36
2023-04-05T09:10:08.767Z,47.14
2023-04-05T09:11:08.745Z,46.86
2023-04-05T09:12:08.730Z,47.34
2023-04-05T09:13:09.251Z,47.04
2023-04-05T09:14:08.735Z,47.96
2023-04-05T09:15:08.693Z,48.26
2023-04-05T09:16:08.697Z,48.80
2023-04-05T09:17:08.809Z,47.37
2023-04-05T09:18:19.017Z,49.30
2023-04-05T09:19:09.641Z,49.29
2023-04-05T09:20:08.677Z,47.45
2023-04-05T09:21:08.641Z,47.42
2023-04-05T09:22:08.612Z,47.22
2023-04-05T09:23:08.623Z,47.53
2023-04-05T09:24:08.599Z,46.94
2023-04-05T09:25:08.591Z,47.57
2023-04-05T09:26:08.598Z,49.49
2023-04-05T09:27:08.581Z,47.86
2023-04-05T09:28:08.549Z,47.14
2023-04-05T09:29:08.564Z,47.67
2023-04-05T09:30:08.514Z,47.67
2023-04-05T09:31:08.567Z,48.00
2023-04-05T09:32:08.525Z,50.35
2023-04-05T09:33:08.612Z,48.49
2023-04-05T09:34:08.483Z,48.36
2023-04-05T09:35:08.478Z,48.85
2023-04-05T09:36:08.496Z,48.34
2023-04-05T09:37:08.442Z,50.18
2023-04-05T09:38:08.451Z,49.00
2023-04-05T09:39:08.470Z,48.41
2023-04-05T09:40:08.419Z,48.59
2023-04-05T09:41:08.439Z,50.71
2023-04-05T09:42:08.398Z,49.18
2023-04-05T09:43:08.383Z,46.63
2023-04-05T09:44:08.391Z,48.55
2023-04-05T09:45:08.365Z,47.02
2023-04-05T09:46:08.416Z,44.85
2023-04-05T09:47:08.356Z,46.38
2023-04-05T09:48:08.458Z,48.19
2023-04-05T09:49:08.321Z,48.27
2023-04-05T09:50:08.320Z,47.16
2023-04-05T09:52:08.306Z,47.46
2023-04-05T09:53:08.270Z,45.12
2023-04-05T09:54:08.277Z,45.40
2023-04-05T09:55:08.247Z,43.67
2023-04-05T09:56:08.275Z,44.59
2023-04-05T09:57:08.246Z,45.71
2023-04-05T09:58:08.223Z,44.67
2023-04-05T09:59:08.239Z,44.06
2023-04-05T10:00:08.216Z,44.08
2023-04-05T10:01:16.890Z,44.59
2023-04-05T10:02:09.249Z,43.57
2023-04-05T10:03:08.276Z,44.31
2023-04-05T10:04:08.287Z,43.26
2023-04-05T10:05:08.136Z,42.45
2023-04-05T10:06:08.151Z,44.28
2023-04-05T10:07:08.161Z,45.71
2023-04-05T10:08:08.133Z,44.79
2023-04-05T10:09:08.098Z,43.77
2023-04-05T10:10:08.085Z,45.48
2023-04-05T10:11:08.117Z,44.46
2023-04-05T10:12:08.053Z,44.26
2023-04-05T10:13:08.068Z,45.28
2023-04-05T10:14:08.077Z,46.50
2023-04-05T10:15:08.035Z,43.85
2023-04-05T10:16:08.038Z,43.73
2023-04-05T10:17:08.027Z,41.82
2023-04-05T10:18:08.032Z,44.57
2023-04-05T10:19:09.028Z,44.97
2023-04-05T10:20:08.029Z,43.38
2023-04-05T10:21:07.978Z,43.51
2023-04-05T10:22:07.974Z,45.85
2023-04-05T10:23:08.028Z,43.10
2023-04-05T10:24:07.929Z,43.63
2023-04-05T10:25:07.938Z,44.83
2023-04-05T10:26:07.945Z,45.54
2023-04-05T10:27:07.903Z,45.94
2023-04-05T10:28:07.903Z,46.01
2023-04-05T10:29:07.939Z,43.47
2023-04-05T10:30:07.854Z,42.04
2023-04-05T10:31:07.843Z,42.45
2023-04-05T10:32:08.056Z,42.27
2023-04-05T10:33:07.917Z,43.38
2023-04-05T10:34:07.972Z,44.12
2023-04-05T10:35:07.851Z,43.61
2023-04-05T10:36:07.884Z,43.69
2023-04-05T10:37:07.789Z,43.38
2023-04-05T10:38:07.762Z,44.71
2023-04-05T10:39:07.804Z,43.90
2023-04-05T10:40:07.793Z,43.49
2023-04-05T10:41:07.780Z,45.20
2023-04-05T10:42:07.773Z,46.42
2023-04-05T10:43:07.717Z,45.68
2023-04-05T10:44:18.888Z,44.65
2023-04-05T10:45:08.725Z,44.24
2023-04-05T10:46:07.814Z,42.41
2023-04-05T10:47:07.680Z,42.45
2023-04-05T10:48:07.755Z,44.69
2023-04-05T10:49:07.738Z,43.37
2023-04-05T10:50:07.755Z,42.04
2023-04-05T10:51:07.634Z,42.86
2023-04-05T10:52:07.659Z,41.61
2023-04-05T10:53:07.652Z,43.96
2023-04-05T10:54:07.620Z,43.43
2023-04-05T10:55:07.713Z,42.00
2023-04-05T10:56:07.581Z,41.39
2023-04-05T10:57:09.395Z,41.39
2023-04-05T10:58:07.765Z,40.91
2023-04-05T10:59:07.578Z,42.13
2023-04-05T11:00:07.623Z,42.55
2023-04-05T11:01:07.641Z,44.36
2023-04-05T11:02:07.524Z,42.53
2023-04-05T11:03:07.541Z,43.44
2023-04-05T11:04:07.533Z,41.21
2023-04-05T11:05:07.539Z,42.02
2023-04-05T11:06:07.479Z,42.13
2023-04-05T11:07:07.489Z,41.21
2023-04-05T11:08:07.477Z,42.43
2023-04-05T11:09:07.469Z,42.22
2023-04-05T11:10:07.446Z,42.31
2023-04-05T11:11:07.462Z,40.97
2023-04-05T11:12:07.457Z,40.78
2023-04-05T11:13:07.414Z,41.07
2023-04-05T11:14:07.403Z,39.85
2023-04-05T11:15:07.390Z,38.24
2023-04-05T11:16:07.374Z,38.34
2023-04-05T11:17:07.444Z,39.66
2023-04-05T11:18:07.415Z,38.34
2023-04-05T11:19:07.344Z,37.65
2023-04-05T11:20:07.322Z,39.07
2023-04-05T11:21:07.322Z,41.02
2023-04-05T11:22:07.298Z,40.60
2023-04-05T11:23:07.319Z,39.99
2023-04-05T11:24:07.340Z,39.99
2023-04-05T11:25:07.295Z,40.19
2023-04-05T11:26:07.285Z,40.07
2023-04-05T11:27:07.242Z,40.17
2023-04-05T11:28:07.235Z,37.53
2023-04-05T11:29:07.274Z,39.78
2023-04-05T11:30:07.220Z,40.17
2023-04-05T11:31:07.335Z,38.54
2023-04-05T11:32:07.205Z,37.75
2023-04-05T11:33:07.285Z,37.95
2023-04-05T11:34:07.180Z,38.17
2023-04-05T11:35:07.180Z,38.07
2023-04-05T11:36:07.215Z,39.09
2023-04-05T11:37:07.131Z,40.19
2023-04-05T11:38:07.122Z,40.19
2023-04-05T11:39:07.138Z,40.17
2023-04-05T11:40:07.093Z,39.66
2023-04-05T11:41:07.081Z,39.64
2023-04-05T11:42:07.094Z,39.54
2023-04-05T11:43:07.090Z,40.37
2023-04-05T11:44:07.046Z,40.86
2023-04-05T11:45:07.040Z,40.16
2023-04-05T11:46:07.025Z,39.75
2023-04-05T11:47:07.025Z,39.76
2023-04-05T11:48:07.105Z,39.87
2023-04-05T11:49:07.012Z,40.37
2023-04-05T11:50:06.984Z,40.97
2023-04-05T11:51:07.006Z,41.35
2023-04-05T11:52:06.957Z,40.95
2023-04-05T11:53:06.954Z,39.32
2023-04-05T11:54:06.980Z,41.35
2023-04-05T11:55:06.924Z,42.37
2023-04-05T11:56:06.952Z,39.42
2023-04-05T11:57:06.896Z,41.07
2023-04-05T11:58:06.891Z,41.09
2023-04-05T11:59:06.936Z,43.20
2023-04-05T12:00:06.881Z,42.19
2023-04-05T12:01:06.883Z,39.44
2023-04-05T12:02:06.886Z,40.97
2023-04-05T12:03:06.908Z,40.88
2023-04-05T12:04:06.842Z,41.49
2023-04-05T12:05:06.885Z,40.09
2023-04-05T12:06:06.823Z,42.14
2023-04-05T12:07:06.810Z,41.61
2023-04-05T12:08:06.795Z,40.91
2023-04-05T12:09:06.756Z,39.48
2023-04-05T12:10:06.755Z,39.99
2023-04-05T12:11:06.743Z,39.58
2023-04-05T12:12:06.762Z,39.69
2023-04-05T12:13:06.749Z,39.58
2023-04-05T12:14:06.704Z,40.62
2023-04-05T12:15:06.709Z,41.13
2023-04-05T12:16:06.704Z,39.40
2023-04-05T12:17:06.672Z,41.63
2023-04-05T12:18:06.708Z,40.94
2023-04-05T12:19:06.641Z,41.74
2023-04-05T12:20:06.661Z,39.70
2023-04-05T12:21:07.869Z,38.38
2023-04-05T12:22:06.619Z,39.31
2023-04-05T12:23:06.616Z,39.51
2023-04-05T12:24:06.622Z,39.43
2023-04-05T12:25:06.610Z,39.62
2023-04-05T12:26:06.596Z,39.62
2023-04-05T12:27:06.568Z,39.92
2023-04-05T12:28:06.552Z,40.12
2023-04-05T12:29:06.557Z,39.92
2023-04-05T12:30:06.624Z,41.13
2023-04-05T12:31:06.512Z,40.52
2023-04-05T12:32:06.573Z,41.35
2023-04-05T12:33:06.589Z,41.14
2023-04-05T12:34:06.478Z,39.84
2023-04-05T12:35:06.471Z,41.06
2023-04-05T12:36:06.552Z,40.86
2023-04-05T12:37:06.491Z,41.05
2023-04-05T12:38:06.479Z,41.14
2023-04-05T12:39:06.461Z,43.18
2023-04-05T12:40:06.440Z,42.16
2023-04-05T12:41:06.410Z,41.45
2023-04-05T12:42:06.424Z,41.02
2023-04-05T12:43:06.385Z,40.82
2023-04-05T12:44:06.374Z,39.82
2023-04-05T12:45:06.386Z,41.25
2023-04-05T12:46:06.434Z,41.14
2023-04-05T12:47:06.355Z,41.05
2023-04-05T12:48:06.360Z,41.75
2023-04-05T12:49:06.341Z,41.45
2023-04-05T12:50:06.324Z,40.62
2023-04-05T12:51:06.323Z,39.50
2023-04-05T12:52:06.295Z,39.60
2023-04-05T12:53:06.299Z,41.02